createdAt,value
2018-01-30T00:02:00.409Z,5.60
2018-01-30T00:04:27.902Z,5.60
2018-01-30T00:06:55.448Z,5.50
2018-01-30T00:09:22.949Z,5.50
2018-01-30T00:11:50.488Z,5.50
2018-01-30T00:14:18.014Z,5.50
2018-01-30T00:16:45.552Z,5.50
2018-01-30T00:19:13.098Z,5.40
2018-01-30T00:21:41.393Z,5.40
2018-01-30T00:24:08.912Z,5.30
2018-01-30T00:26:37.029Z,5.40
2018-01-30T00:29:05.290Z,5.30
2018-01-30T00:31:32.812Z,5.30
2018-01-30T00:34:00.324Z,5.30
2018-01-30T00:36:28.031Z,5.30
2018-01-30T00:38:56.307Z,5.30
2018-01-30T00:41:23.843Z,5.30
2018-01-30T00:43:51.323Z,5.30
2018-01-30T00:46:18.924Z,5.40
2018-01-30T00:48:47.201Z,5.30
2018-01-30T00:51:15.506Z,5.30
2018-01-30T00:53:43.780Z,5.30
2018-01-30T00:56:11.337Z,5.20
2018-01-30T00:58:38.963Z,5.20
2018-01-30T01:01:06.504Z,5.20
2018-01-30T01:03:34.752Z,5.20
2018-01-30T01:06:02.265Z,5.20
2018-01-30T01:08:29.752Z,5.20
2018-01-30T01:10:57.321Z,5.20
2018-01-30T01:13:25.574Z,5.30
2018-01-30T01:15:53.076Z,5.30
2018-01-30T01:18:21.324Z,5.30
2018-01-30T01:20:48.813Z,5.20
2018-01-30T01:23:16.330Z,5.20
2018-01-30T01:25:43.974Z,5.20
2018-01-30T01:28:12.494Z,5.20
2018-01-30T01:30:40.025Z,5.20
2018-01-30T01:33:08.383Z,5.20
2018-01-30T01:35:36.607Z,5.20
2018-01-30T01:38:04.913Z,5.20
2018-01-30T01:40:33.184Z,5.20
2018-01-30T01:43:00.662Z,5.20
2018-01-30T01:45:28.972Z,5.10
2018-01-30T01:47:56.529Z,5.10
2018-01-30T01:50:24.805Z,5.10
2018-01-30T01:52:52.303Z,5.10
2018-01-30T01:55:19.969Z,5.00
2018-01-30T01:57:47.518Z,5.00
2018-01-30T02:00:15.801Z,4.90
2018-01-30T02:02:44.434Z,4.90
2018-01-30T02:05:11.913Z,4.90
2018-01-30T02:07:39.606Z,4.90
2018-01-30T02:10:07.876Z,4.80
2018-01-30T02:12:35.409Z,4.80
2018-01-30T02:15:03.684Z,4.80
2018-01-30T02:17:31.961Z,4.70
2018-01-30T02:19:59.560Z,4.70
2018-01-30T02:22:27.837Z,4.70
2018-01-30T02:24:56.105Z,4.70
2018-01-30T02:27:23.724Z,4.70
2018-01-30T02:29:51.270Z,4.70
2018-01-30T02:32:18.772Z,4.70
2018-01-30T02:34:46.312Z,4.70
2018-01-30T02:37:14.877Z,4.70
2018-01-30T02:39:42.480Z,4.60
2018-01-30T02:42:10.792Z,4.70
2018-01-30T02:44:38.313Z,4.70
2018-01-30T02:47:05.823Z,4.70
2018-01-30T02:49:34.078Z,4.70
2018-01-30T02:52:01.595Z,4.70
2018-01-30T02:54:29.360Z,4.70
2018-01-30T02:56:56.934Z,4.70
2018-01-30T02:59:24.489Z,4.70
2018-01-30T03:01:51.993Z,4.70
2018-01-30T03:04:19.527Z,4.70
2018-01-30T03:06:47.939Z,4.80
2018-01-30T03:09:15.484Z,4.70
2018-01-30T03:11:43.773Z,4.80
2018-01-30T03:14:12.185Z,4.80
2018-01-30T03:16:40.301Z,4.80
2018-01-30T03:19:07.788Z,4.80
2018-01-30T03:21:35.317Z,4.80
2018-01-30T03:24:02.877Z,4.80
2018-01-30T03:26:31.180Z,4.80
2018-01-30T03:28:58.716Z,4.80
2018-01-30T03:31:27.022Z,4.90
2018-01-30T03:33:55.293Z,4.90
2018-01-30T03:36:23.557Z,4.90
2018-01-30T03:38:51.156Z,4.80
2018-01-30T03:41:20.134Z,4.90
2018-01-30T03:43:47.721Z,4.90
2018-01-30T03:46:15.211Z,4.90
2018-01-30T03:48:43.468Z,4.90
2018-01-30T03:51:10.957Z,4.90
2018-01-30T03:53:38.459Z,5.00
2018-01-30T03:56:06.057Z,5.00
2018-01-30T03:58:33.554Z,5.00
2018-01-30T04:01:01.073Z,5.00
2018-01-30T04:03:28.605Z,5.00
2018-01-30T04:05:56.094Z,5.00
2018-01-30T04:08:24.434Z,5.00
2018-01-30T04:10:52.037Z,5.00
2018-01-30T04:13:20.351Z,5.00
2018-01-30T04:15:47.833Z,5.00
2018-01-30T04:18:15.566Z,5.00
2018-01-30T04:20:44.749Z,4.90
2018-01-30T04:23:12.271Z,4.90
2018-01-30T04:25:39.832Z,4.90
2018-01-30T04:28:08.108Z,4.80
2018-01-30T04:30:35.688Z,4.80
2018-01-30T04:33:03.977Z,4.70
2018-01-30T04:35:32.269Z,4.60
2018-01-30T04:38:00.566Z,4.60
2018-01-30T04:40:28.871Z,4.60
2018-01-30T04:42:56.358Z,4.60
2018-01-30T04:45:23.871Z,4.50
2018-01-30T04:47:52.202Z,4.50
2018-01-30T04:50:19.744Z,4.50
2018-01-30T04:52:48.044Z,4.50
2018-01-30T04:55:16.308Z,4.40
2018-01-30T04:57:43.808Z,4.40
2018-01-30T05:00:11.380Z,4.40
2018-01-30T05:02:39.745Z,4.50
2018-01-30T05:05:07.335Z,4.40
2018-01-30T05:07:36.162Z,4.50
2018-01-30T05:10:03.665Z,4.50
2018-01-30T05:12:31.204Z,4.50
2018-01-30T05:14:58.766Z,4.50
2018-01-30T05:17:26.333Z,4.50
2018-01-30T05:19:53.809Z,4.50
2018-01-30T05:22:21.354Z,4.50
2018-01-30T05:24:49.710Z,4.50
2018-01-30T05:27:17.290Z,4.50
2018-01-30T05:29:44.817Z,4.50
2018-01-30T05:32:12.536Z,4.50
2018-01-30T05:34:40.191Z,4.50
2018-01-30T05:37:07.701Z,4.50
2018-01-30T05:39:36.005Z,4.50
2018-01-30T05:42:04.268Z,4.60
2018-01-30T05:44:31.809Z,4.50
2018-01-30T05:46:59.305Z,4.60
2018-01-30T05:49:26.918Z,4.60
2018-01-30T05:51:54.472Z,4.70
2018-01-30T05:54:22.743Z,4.70
2018-01-30T05:56:50.367Z,4.70
2018-01-30T05:59:17.887Z,4.70
2018-01-30T06:01:45.470Z,4.70
2018-01-30T06:04:13.173Z,4.70
2018-01-30T06:06:40.736Z,4.70
2018-01-30T06:09:09.018Z,4.60
2018-01-30T06:11:36.537Z,4.60
2018-01-30T06:14:04.069Z,4.60
2018-01-30T06:16:31.594Z,4.60
2018-01-30T06:18:59.311Z,4.60
2018-01-30T06:21:26.880Z,4.60
2018-01-30T06:23:55.282Z,4.60
2018-01-30T06:26:22.992Z,4.60
2018-01-30T06:28:50.495Z,4.70
2018-01-30T06:31:18.029Z,4.60
2018-01-30T06:33:45.711Z,4.70
2018-01-30T06:36:13.217Z,4.70
2018-01-30T06:38:41.726Z,4.70
2018-01-30T06:41:09.235Z,4.60
2018-01-30T06:43:36.739Z,4.70
2018-01-30T06:46:05.005Z,4.70
2018-01-30T06:48:32.621Z,4.70
2018-01-30T06:51:00.126Z,4.70
2018-01-30T06:53:27.677Z,4.70
2018-01-30T06:55:55.173Z,4.80
2018-01-30T06:58:22.710Z,4.80
2018-01-30T07:00:51.131Z,4.80
2018-01-30T07:03:18.790Z,4.80
2018-01-30T07:05:46.340Z,4.80
2018-01-30T07:08:14.651Z,4.80
2018-01-30T07:10:42.149Z,4.80
2018-01-30T07:13:09.749Z,4.90
2018-01-30T07:15:38.011Z,4.90
2018-01-30T07:18:05.661Z,4.90
2018-01-30T07:20:33.221Z,5.20
2018-01-30T07:23:00.735Z,5.40
2018-01-30T07:25:28.347Z,5.50
2018-01-30T07:27:56.638Z,5.70
2018-01-30T07:30:24.276Z,5.60
2018-01-30T07:32:53.317Z,5.70
2018-01-30T07:35:20.827Z,5.70
2018-01-30T07:37:48.339Z,5.60
2018-01-30T07:40:16.603Z,5.40
2018-01-30T07:42:45.192Z,5.30
2018-01-30T07:45:12.766Z,5.30
2018-01-30T07:47:40.286Z,5.30
2018-01-30T07:50:07.920Z,5.20
2018-01-30T07:52:35.454Z,5.20
2018-01-30T07:55:02.962Z,5.20
2018-01-30T07:57:30.488Z,5.20
2018-01-30T07:59:57.998Z,5.20
2018-01-30T08:02:25.494Z,5.10
2018-01-30T08:04:53.027Z,5.10
2018-01-30T08:07:20.541Z,5.10
2018-01-30T08:09:48.050Z,5.10
2018-01-30T08:12:15.696Z,5.10
2018-01-30T08:14:43.190Z,5.10
2018-01-30T08:17:10.729Z,5.10
2018-01-30T08:19:40.444Z,5.20
2018-01-30T08:22:08.755Z,5.20
2018-01-30T08:24:36.641Z,5.10
2018-01-30T08:27:04.210Z,5.10
2018-01-30T08:29:31.704Z,5.10
2018-01-30T08:31:59.491Z,5.10
2018-01-30T08:34:27.012Z,5.10
2018-01-30T08:36:54.547Z,5.10
2018-01-30T08:39:22.053Z,5.10
2018-01-30T08:41:49.592Z,5.10
2018-01-30T08:44:17.201Z,5.10
2018-01-30T08:46:44.693Z,5.10
2018-01-30T08:49:12.213Z,5.10
2018-01-30T08:51:40.678Z,5.10
2018-01-30T08:54:08.281Z,5.10
2018-01-30T08:56:36.625Z,5.10
2018-01-30T08:59:04.229Z,5.10
2018-01-30T09:01:31.746Z,5.10
2018-01-30T09:04:00.058Z,5.20
2018-01-30T09:06:27.593Z,5.20
2018-01-30T09:08:55.892Z,5.30
2018-01-30T09:11:24.173Z,5.30
2018-01-30T09:13:52.470Z,5.40
2018-01-30T09:16:20.049Z,5.30
2018-01-30T09:18:47.562Z,5.40
2018-01-30T09:21:15.070Z,5.40
2018-01-30T09:23:43.447Z,5.40
2018-01-30T09:26:11.743Z,5.40
2018-01-30T09:28:40.046Z,5.40
2018-01-30T09:31:08.317Z,5.40
2018-01-30T09:33:35.868Z,5.40
2018-01-30T09:36:03.381Z,5.50
2018-01-30T09:38:30.962Z,5.40
2018-01-30T09:40:58.624Z,5.40
2018-01-30T09:43:26.404Z,5.40
2018-01-30T09:45:54.695Z,5.40
2018-01-30T09:48:22.362Z,5.40
2018-01-30T09:50:49.894Z,5.40
2018-01-30T09:53:17.420Z,5.40
2018-01-30T09:55:45.128Z,5.40
2018-01-30T09:58:12.765Z,5.40
2018-01-30T10:00:40.274Z,5.40
2018-01-30T10:03:08.726Z,5.40
2018-01-30T10:05:36.366Z,5.50
2018-01-30T10:08:03.952Z,5.40
2018-01-30T10:10:31.585Z,5.40
2018-01-30T10:12:59.310Z,5.40
2018-01-30T10:15:27.659Z,5.50
2018-01-30T10:17:55.974Z,5.50
2018-01-30T10:20:24.230Z,5.50
2018-01-30T10:22:51.848Z,5.40
2018-01-30T10:25:20.177Z,5.50
2018-01-30T10:27:47.718Z,5.50
2018-01-30T10:30:15.246Z,5.50
2018-01-30T10:32:42.901Z,5.60
2018-01-30T10:35:10.756Z,5.60
2018-01-30T10:37:38.278Z,5.60
2018-01-30T10:40:06.608Z,5.60
2018-01-30T10:42:34.413Z,5.60
2018-01-30T10:45:02.026Z,5.70
2018-01-30T10:47:29.626Z,5.70
2018-01-30T10:49:57.105Z,5.60
2018-01-30T10:52:24.662Z,5.60
2018-01-30T10:54:52.312Z,5.60
2018-01-30T10:57:20.700Z,5.70
2018-01-30T10:59:48.394Z,5.70
2018-01-30T11:02:16.106Z,5.70
2018-01-30T11:04:43.649Z,5.60
2018-01-30T11:07:11.318Z,5.70
2018-01-30T11:09:38.932Z,5.60
2018-01-30T11:12:06.425Z,5.70
2018-01-30T11:14:34.738Z,5.70
2018-01-30T11:17:03.029Z,5.70
2018-01-30T11:19:31.300Z,5.70
2018-01-30T11:21:58.833Z,5.70
2018-01-30T11:24:26.398Z,5.80
2018-01-30T11:26:53.945Z,5.80
2018-01-30T11:29:21.595Z,5.90
2018-01-30T11:31:50.088Z,5.90
2018-01-30T11:34:18.361Z,5.90
2018-01-30T11:36:45.977Z,5.90
2018-01-30T11:39:13.631Z,5.90
2018-01-30T11:41:41.942Z,6.00
2018-01-30T11:44:09.451Z,6.00
2018-01-30T11:46:36.981Z,6.00
2018-01-30T11:49:04.490Z,6.00
2018-01-30T11:51:32.082Z,6.00
2018-01-30T11:53:59.966Z,6.00
2018-01-30T11:56:27.496Z,6.10
2018-01-30T11:58:55.000Z,6.10
2018-01-30T12:01:22.755Z,6.10
2018-01-30T12:03:50.270Z,6.10
2018-01-30T12:06:18.609Z,6.10
2018-01-30T12:08:46.137Z,6.10
2018-01-30T12:11:14.420Z,6.20
2018-01-30T12:13:41.921Z,6.20
2018-01-30T12:16:09.483Z,6.20
2018-01-30T12:18:37.759Z,6.20
2018-01-30T12:21:05.332Z,6.10
2018-01-30T12:23:33.634Z,6.20
2018-01-30T12:26:01.948Z,6.20
2018-01-30T12:28:29.533Z,6.20
2018-01-30T12:31:01.823Z,6.20
2018-01-30T12:33:29.346Z,6.20
2018-01-30T12:35:57.671Z,6.10
2018-01-30T12:38:25.195Z,6.20
2018-01-30T12:40:52.806Z,6.20
2018-01-30T12:43:20.302Z,6.20
2018-01-30T12:45:48.042Z,6.30
2018-01-30T12:48:15.656Z,6.30
2018-01-30T12:50:43.191Z,6.30
2018-01-30T12:53:10.689Z,6.30
2018-01-30T12:55:38.417Z,6.30
2018-01-30T12:58:06.673Z,6.30
2018-01-30T13:00:34.243Z,6.30
2018-01-30T13:03:02.773Z,6.30
2018-01-30T13:05:30.285Z,6.30
2018-01-30T13:07:57.946Z,6.40
2018-01-30T13:10:26.414Z,6.30
2018-01-30T13:12:53.922Z,6.30
2018-01-30T13:15:21.576Z,6.30
2018-01-30T13:17:49.254Z,6.30
2018-01-30T13:20:16.803Z,6.20
2018-01-30T13:22:44.491Z,6.20
2018-01-30T13:25:12.008Z,6.20
2018-01-30T13:27:39.707Z,6.30
2018-01-30T13:30:08.117Z,6.30
2018-01-30T13:32:35.663Z,6.20
2018-01-30T13:35:03.958Z,6.30
2018-01-30T13:37:32.236Z,6.20
2018-01-30T13:39:59.777Z,6.20
2018-01-30T13:42:27.286Z,6.30
2018-01-30T13:44:56.486Z,6.20
2018-01-30T13:47:24.773Z,6.30
2018-01-30T13:49:53.075Z,6.30
2018-01-30T13:52:21.353Z,6.30
2018-01-30T13:54:49.639Z,6.40
2018-01-30T13:57:17.162Z,6.30
2018-01-30T13:59:45.462Z,6.30
2018-01-30T14:02:12.996Z,6.30
2018-01-30T14:04:41.267Z,6.20
2018-01-30T14:07:09.574Z,6.20
2018-01-30T14:09:37.170Z,6.20
2018-01-30T14:17:46.227Z,6.20
2018-01-30T14:20:13.734Z,6.10
2018-01-30T14:22:41.344Z,6.20
2018-01-30T14:25:09.265Z,6.10
2018-01-30T14:27:36.789Z,6.10
2018-01-30T14:30:04.316Z,6.10
2018-01-30T14:32:32.591Z,6.10
2018-01-30T14:35:00.354Z,6.00
2018-01-30T14:37:27.863Z,6.00
2018-01-30T14:39:55.413Z,6.10
2018-01-30T14:42:23.013Z,6.10
2018-01-30T14:44:50.548Z,6.10
2018-01-30T14:47:18.083Z,6.00
2018-01-30T14:49:45.671Z,6.10
2018-01-30T14:52:13.392Z,6.10
2018-01-30T14:54:41.660Z,6.10
2018-01-30T14:57:09.156Z,6.10
2018-01-30T14:59:36.746Z,6.10
2018-01-30T15:02:04.244Z,6.10
2018-01-30T15:04:31.855Z,6.00
2018-01-30T15:06:59.375Z,6.00
2018-01-30T15:09:27.633Z,6.00
2018-01-30T15:11:55.152Z,6.00
2018-01-30T15:14:22.647Z,6.00
2018-01-30T15:16:50.297Z,6.00
2018-01-30T15:19:19.324Z,6.00
2018-01-30T15:21:47.829Z,6.00
2018-01-30T15:24:16.394Z,5.90
2018-01-30T15:26:44.132Z,6.00
2018-01-30T15:29:11.786Z,6.00
2018-01-30T15:31:39.477Z,6.00
2018-01-30T15:34:07.012Z,5.90
2018-01-30T15:36:34.545Z,6.00
2018-01-30T15:39:02.046Z,5.90
2018-01-30T15:41:29.590Z,5.90
2018-01-30T15:43:57.128Z,5.90
2018-01-30T15:46:24.644Z,5.90
2018-01-30T15:48:52.929Z,5.80
2018-01-30T15:51:21.237Z,5.80
2018-01-30T15:53:49.020Z,5.80
2018-01-30T15:56:16.680Z,5.80
2018-01-30T15:58:44.250Z,5.80
2018-01-30T16:01:12.554Z,5.70
2018-01-30T16:03:40.122Z,5.70
2018-01-30T16:06:07.795Z,5.70
2018-01-30T16:08:35.332Z,5.70
2018-01-30T16:11:02.950Z,5.70
2018-01-30T16:13:30.608Z,5.70
2018-01-30T16:15:58.115Z,5.70
2018-01-30T16:18:25.745Z,5.70
2018-01-30T16:20:54.103Z,5.70
2018-01-30T16:23:21.749Z,5.70
2018-01-30T16:25:49.414Z,5.70
2018-01-30T16:28:17.283Z,5.70
2018-01-30T16:30:44.831Z,5.60
2018-01-30T16:33:12.363Z,5.60
2018-01-30T16:35:39.887Z,5.60
2018-01-30T16:38:08.290Z,5.60
2018-01-30T16:40:35.785Z,5.60
2018-01-30T16:43:03.374Z,5.50
2018-01-30T16:45:31.795Z,5.50
2018-01-30T16:48:00.136Z,5.50
2018-01-30T16:50:27.650Z,5.50
2018-01-30T16:52:56.176Z,5.50
2018-01-30T16:55:23.947Z,5.40
2018-01-30T16:57:51.502Z,5.40
2018-01-30T17:00:19.831Z,5.40
2018-01-30T17:02:47.403Z,5.40
2018-01-30T17:05:15.975Z,5.30
2018-01-30T17:07:43.504Z,5.30
2018-01-30T17:10:13.163Z,5.30
2018-01-30T17:12:40.750Z,5.30
2018-01-30T17:15:08.235Z,5.20
2018-01-30T17:17:37.590Z,5.20
2018-01-30T17:20:05.292Z,5.20
2018-01-30T17:22:32.815Z,5.20
2018-01-30T17:25:00.421Z,5.20
2018-01-30T17:27:28.723Z,5.10
2018-01-30T17:29:56.313Z,5.10
2018-01-30T17:32:24.496Z,5.10
2018-01-30T17:34:52.130Z,5.10
2018-01-30T17:37:19.759Z,5.00
2018-01-30T17:39:47.284Z,5.00
2018-01-30T17:42:14.817Z,5.00
2018-01-30T17:44:42.325Z,5.00
2018-01-30T17:47:10.591Z,4.90
2018-01-30T17:49:39.586Z,4.90
2018-01-30T17:52:07.119Z,4.90
2018-01-30T17:54:35.417Z,4.90
2018-01-30T17:57:02.963Z,4.80
2018-01-30T17:59:31.369Z,4.80
2018-01-30T18:01:58.886Z,4.80
2018-01-30T18:04:26.483Z,4.80
2018-01-30T18:06:54.176Z,4.80
2018-01-30T18:09:22.467Z,4.80
2018-01-30T18:11:51.567Z,4.70
2018-01-30T18:14:19.110Z,4.70
2018-01-30T18:16:46.753Z,4.70
2018-01-30T18:19:15.195Z,4.70
2018-01-30T18:21:43.500Z,4.60
2018-01-30T18:24:11.119Z,4.60
2018-01-30T18:26:38.738Z,4.60
2018-01-30T18:29:06.287Z,4.60
2018-01-30T18:31:34.585Z,4.60
2018-01-30T18:34:02.887Z,4.60
2018-01-30T18:36:30.445Z,4.60
2018-01-30T18:38:58.859Z,4.50
2018-01-30T18:41:26.506Z,4.50
2018-01-30T18:43:54.841Z,4.50
2018-01-30T18:46:22.885Z,4.50
2018-01-30T18:48:52.889Z,4.50
2018-01-30T18:51:20.651Z,4.50
2018-01-30T18:53:48.199Z,4.50
2018-01-30T18:56:15.773Z,4.40
2018-01-30T18:58:43.421Z,4.40
2018-01-30T19:01:11.049Z,4.40
2018-01-30T19:03:38.557Z,4.30
2018-01-30T19:06:06.340Z,4.30
2018-01-30T19:08:33.846Z,4.30
2018-01-30T19:11:01.361Z,4.30
2018-01-30T19:13:29.632Z,4.30
2018-01-30T19:15:57.228Z,4.30
2018-01-30T19:18:25.532Z,4.20
2018-01-30T19:20:53.107Z,4.20
2018-01-30T19:23:21.675Z,4.20
2018-01-30T19:25:50.395Z,4.20
2018-01-30T19:28:18.285Z,4.20
2018-01-30T19:30:45.941Z,4.20
2018-01-30T19:33:14.267Z,4.20
2018-01-30T19:35:41.868Z,4.20
2018-01-30T19:38:09.503Z,4.20
2018-01-30T19:40:38.396Z,4.20
2018-01-30T19:43:06.070Z,4.20
2018-01-30T19:45:33.598Z,4.20
2018-01-30T19:48:01.155Z,4.20
2018-01-30T19:50:28.788Z,4.20
2018-01-30T19:52:56.444Z,4.20
2018-01-30T19:55:24.856Z,4.20
2018-01-30T19:57:52.550Z,4.20
2018-01-30T20:00:20.309Z,4.20
2018-01-30T20:02:47.939Z,4.20
2018-01-30T20:05:16.331Z,4.10
2018-01-30T20:07:44.860Z,4.10
2018-01-30T20:10:12.528Z,4.10
2018-01-30T20:12:40.169Z,4.10
2018-01-30T20:15:08.590Z,4.10
2018-01-30T20:17:38.211Z,4.10
2018-01-30T20:20:06.403Z,4.10
2018-01-30T20:22:33.969Z,4.10
2018-01-30T20:25:01.493Z,4.10
2018-01-30T20:27:29.249Z,4.10
2018-01-30T20:29:58.230Z,4.10
2018-01-30T20:32:26.246Z,4.10
2018-01-30T20:34:54.861Z,4.00
2018-01-30T20:37:22.522Z,4.00
2018-01-30T20:39:50.840Z,4.00
2018-01-30T20:42:18.850Z,4.00
2018-01-30T20:44:46.406Z,4.00
2018-01-30T20:47:14.100Z,4.10
2018-01-30T20:49:41.681Z,4.10
2018-01-30T20:52:09.557Z,4.10
2018-01-30T20:54:37.190Z,4.10
2018-01-30T20:57:04.766Z,4.00
2018-01-30T20:59:32.467Z,4.10
2018-01-30T21:02:00.140Z,4.30
2018-01-30T21:04:28.234Z,4.40
2018-01-30T21:06:55.912Z,4.50
2018-01-30T21:09:23.469Z,4.60
2018-01-30T21:11:51.086Z,4.60
2018-01-30T21:14:18.614Z,4.70
2018-01-30T21:16:46.892Z,4.60
2018-01-30T21:19:17.668Z,4.50
2018-01-30T21:21:45.348Z,4.40
2018-01-30T21:24:12.989Z,4.30
2018-01-30T21:26:40.550Z,4.30
2018-01-30T21:29:08.093Z,4.20
2018-01-30T21:31:36.570Z,4.10
2018-01-30T21:34:04.226Z,4.10
2018-01-30T21:36:31.801Z,4.10
2018-01-30T21:38:59.354Z,4.00
2018-01-30T21:41:26.902Z,3.90
2018-01-30T21:43:54.652Z,3.80
2018-01-30T21:46:22.451Z,3.80
2018-01-30T21:48:49.943Z,3.80
2018-01-30T21:51:18.003Z,3.70
2018-01-30T21:53:45.560Z,3.70
2018-01-30T21:56:13.352Z,3.60
2018-01-30T21:58:40.902Z,3.60
2018-01-30T22:01:08.496Z,3.50
2018-01-30T22:03:36.066Z,3.50
2018-01-30T22:06:03.775Z,3.40
2018-01-30T22:08:31.677Z,3.40
2018-01-30T22:10:59.370Z,3.40
2018-01-30T22:13:27.672Z,3.40
2018-01-30T22:15:55.257Z,3.30
2018-01-30T22:18:22.804Z,3.30
2018-01-30T22:20:51.224Z,3.30
2018-01-30T22:23:18.767Z,3.30
2018-01-30T22:25:46.467Z,3.20
2018-01-30T22:28:13.973Z,3.20
2018-01-30T22:30:41.562Z,3.20
2018-01-30T22:33:09.243Z,3.10
2018-01-30T22:35:36.813Z,3.10
2018-01-30T22:38:04.395Z,3.10
2018-01-30T22:40:31.998Z,3.10
2018-01-30T22:42:59.568Z,3.10
2018-01-30T22:45:27.235Z,3.00
